Time;durP1;ratioP1;P1;durP2;ratioP2;P2;SDS_P1;SDS_P2;PMS_P1;PMS_P2;Temp;Humidity;BMP_temperature;BMP_pressure;BME280_temperature;BME280_humidity;BME280_pressure;Samples;Min_cycle;Max_cycle;Signal;HPM_P1;HPM_P2
2023/04/28 00:01:53;;;;;;;8.10;5.37;;;15.60;77.80;;;;;;4979516;28;20462;-74
2023/04/28 00:04:22;;;;;;;7.47;4.53;;;15.60;77.80;;;;;;4975489;28;20533;-75
2023/04/28 00:06:50;;;;;;;5.90;5.40;;;15.60;77.90;;;;;;4980404;28;20454;-74
2023/04/28 00:09:18;;;;;;;5.77;5.07;;;15.50;77.90;;;;;;4995001;28;20427;-74
2023/04/28 00:11:47;;;;;;;6.27;5.20;;;15.60;78.20;;;;;;5011762;28;20472;-74
2023/04/28 00:14:13;;;;;;;5.80;4.70;;;15.50;78.20;;;;;;4994983;28;20997;-73
2023/04/28 00:16:39;;;;;;;6.20;5.20;;;15.50;78.40;;;;;;4995656;28;20510;-74
2023/04/28 00:19:05;;;;;;;6.10;5.10;;;15.50;78.70;;;;;;5021998;28;20433;-74
2023/04/28 00:21:33;;;;;;;5.60;4.93;;;15.50;78.80;;;;;;4976148;28;20219;-74
2023/04/28 00:24:01;;;;;;;6.13;5.03;;;15.50;79.10;;;;;;4990160;28;20847;-74
2023/04/28 00:26:32;;;;;;;6.73;4.90;;;15.50;79.40;;;;;;4977546;28;20451;-74
2023/04/28 00:29:02;;;;;;;7.00;4.80;;;15.50;79.60;;;;;;4995589;28;20447;-74
2023/04/28 00:31:30;;;;;;;10.53;6.40;;;15.50;79.80;;;;;;4982148;28;20467;-74
2023/04/28 00:34:01;;;;;;;5.47;4.97;;;15.50;80.00;;;;;;5020402;28;20810;-74
2023/04/28 00:36:32;;;;;;;5.97;5.30;;;15.50;80.20;;;;;;4962872;28;20459;-74
2023/04/28 00:38:58;;;;;;;8.60;4.90;;;15.50;80.30;;;;;;4959756;28;20434;-74
2023/04/28 00:41:24;;;;;;;6.60;5.00;;;15.50;80.50;;;;;;4982204;28;20821;-74
2023/04/28 00:43:50;;;;;;;4.90;4.50;;;15.40;80.60;;;;;;4981047;28;20467;-74
2023/04/28 00:46:28;;;;;;;6.90;5.03;;;15.40;80.80;;;;;;5002222;28;20509;-74
2023/04/28 00:48:55;;;;;;;6.80;5.30;;;15.40;81.00;;;;;;4977536;28;20526;-74
2023/04/28 00:51:27;;;;;;;6.63;5.40;;;15.40;81.20;;;;;;4992555;28;20508;-74
2023/04/28 00:53:55;;;;;;;6.63;5.90;;;15.40;81.40;;;;;;4978962;28;20899;-74
2023/04/28 00:56:21;;;;;;;5.00;4.50;;;15.40;81.50;;;;;;4977591;28;20419;-74
2023/04/28 00:58:48;;;;;;;5.83;5.10;;;15.40;81.70;;;;;;5011344;28;20440;-74
2023/04/28 01:01:15;;;;;;;5.47;4.90;;;15.40;81.90;;;;;;4993113;28;20473;-74
2023/04/28 01:03:41;;;;;;;5.60;5.10;;;15.40;82.10;;;;;;4979580;28;20548;-74
2023/04/28 01:06:09;;;;;;;5.07;4.57;;;15.40;82.30;;;;;;5001728;28;20483;-74
2023/04/28 01:08:37;;;;;;;6.13;5.53;;;15.40;82.50;;;;;;4996384;28;20447;-74
2023/04/28 01:11:12;;;;;;;6.27;5.00;;;15.40;82.80;;;;;;4975053;28;20461;-74
2023/04/28 01:13:58;;;;;;;9.20;5.70;;;15.40;82.90;;;;;;5102866;23;21017;-74
2023/04/28 01:16:26;;;;;;;5.77;5.23;;;15.40;83.10;;;;;;5000175;28;20434;-74
2023/04/28 01:18:55;;;;;;;7.00;5.33;;;15.40;83.30;;;;;;4999535;28;21038;-75
2023/04/28 01:21:27;;;;;;;9.03;5.80;;;15.40;83.50;;;;;;5015346;28;20460;-74
2023/04/28 01:23:56;;;;;;;5.00;4.50;;;15.30;83.60;;;;;;5003477;28;20430;-75
2023/04/28 01:26:22;;;;;;;6.90;6.00;;;15.30;83.80;;;;;;4984308;28;20441;-74
2023/04/28 01:28:48;;;;;;;7.33;5.80;;;15.30;84.10;;;;;;4996400;28;21052;-75
2023/04/28 01:31:19;;;;;;;7.50;5.33;;;15.30;84.30;;;;;;4997109;28;20493;-75
2023/04/28 01:33:45;;;;;;;5.93;5.33;;;15.30;85.40;;;;;;5014006;28;20445;-75
2023/04/28 01:36:11;;;;;;;5.53;4.60;;;15.30;84.80;;;;;;4997619;28;20458;-74
2023/04/28 01:38:44;;;;;;;6.27;5.67;;;15.30;85.00;;;;;;4982845;28;20454;-74
2023/04/28 01:41:12;;;;;;;5.80;4.97;;;15.30;85.10;;;;;;5013832;28;20442;-74
2023/04/28 01:43:39;;;;;;;6.03;5.40;;;15.30;85.40;;;;;;5029417;28;20441;-75
2023/04/28 01:46:07;;;;;;;7.10;5.70;;;15.20;85.50;;;;;;5013316;28;20444;-75
2023/04/28 01:48:33;;;;;;;6.73;5.27;;;15.30;85.80;;;;;;5030149;28;20512;-74
2023/04/28 01:50:59;;;;;;;6.80;5.47;;;15.30;86.00;;;;;;4997015;28;20474;-75
2023/04/28 01:53:32;;;;;;;7.57;5.73;;;15.30;86.20;;;;;;4996675;28;20435;-75
2023/04/28 01:59:23;;;;;;;8.20;5.90;;;15.20;86.40;;;;;;5012806;28;20420;-75
2023/04/28 02:01:52;;;;;;;5.57;4.97;;;15.20;86.60;;;;;;5011518;28;20464;-74
2023/04/28 02:04:18;;;;;;;5.53;4.93;;;15.20;86.90;;;;;;4991236;28;20482;-74
2023/04/28 02:06:44;;;;;;;7.90;5.63;;;15.20;87.00;;;;;;5045737;28;20864;-74
2023/04/28 02:09:14;;;;;;;6.77;5.97;;;15.20;87.10;;;;;;5016448;28;20416;-74
2023/04/28 02:11:42;;;;;;;5.83;5.30;;;15.20;87.40;;;;;;5010452;28;21000;-75
2023/04/28 02:14:10;;;;;;;5.80;5.30;;;15.20;87.50;;;;;;5002209;28;20447;-74
2023/04/28 02:16:36;;;;;;;6.00;5.40;;;15.10;87.60;;;;;;4985490;28;20412;-74
2023/04/28 02:19:03;;;;;;;8.87;5.40;;;15.20;87.80;;;;;;5000826;28;20547;-75
2023/04/28 02:21:29;;;;;;;7.57;5.77;;;15.20;88.10;;;;;;4999002;28;20535;-74
2023/04/28 02:23:55;;;;;;;6.00;5.40;;;15.10;88.20;;;;;;5012774;28;20220;-74
2023/04/28 02:26:23;;;;;;;5.63;5.13;;;15.20;88.40;;;;;;5032220;28;20427;-75
2023/04/28 02:28:54;;;;;;;6.57;5.97;;;15.10;88.40;;;;;;5001044;28;20435;-74
2023/04/28 02:31:22;;;;;;;8.07;5.53;;;15.10;88.60;;;;;;5000772;28;20476;-74
2023/04/28 02:33:48;;;;;;;6.43;5.60;;;15.10;88.90;;;;;;5017520;28;20438;-75
2023/04/28 02:36:17;;;;;;;5.57;5.00;;;15.10;89.00;;;;;;5003150;28;20456;-75
2023/04/28 02:38:47;;;;;;;5.67;4.93;;;15.10;89.10;;;;;;5000903;28;20439;-74
2023/04/28 02:41:16;;;;;;;6.50;5.70;;;15.10;89.10;;;;;;4997811;28;20463;-74
2023/04/28 02:43:45;;;;;;;6.30;5.30;;;15.10;89.20;;;;;;4985173;28;20460;-74
2023/04/28 02:46:11;;;;;;;7.20;4.67;;;15.10;89.30;;;;;;5007064;28;20438;-75
2023/04/28 02:48:37;;;;;;;7.60;5.03;;;15.10;89.50;;;;;;5016527;28;20483;-75
2023/04/28 02:51:03;;;;;;;7.20;5.13;;;15.10;89.60;;;;;;4985125;28;20475;-74
2023/04/28 02:53:29;;;;;;;7.47;5.10;;;15.10;89.70;;;;;;4985044;28;20498;-74
2023/04/28 02:55:58;;;;;;;5.37;4.87;;;15.10;89.80;;;;;;5014501;28;20438;-74
2023/04/28 02:58:26;;;;;;;6.10;5.50;;;15.10;89.90;;;;;;5000267;28;20540;-74
2023/04/28 03:00:54;;;;;;;5.83;5.07;;;15.10;90.00;;;;;;5015914;28;20428;-75
2023/04/28 03:03:20;;;;;;;7.77;5.47;;;15.00;90.00;;;;;;5016637;28;20802;-75
2023/04/28 03:05:46;;;;;;;7.60;5.27;;;15.00;90.00;;;;;;4997522;28;20976;-75
2023/04/28 03:08:14;;;;;;;6.67;5.13;;;15.00;90.00;;;;;;4996881;28;20426;-75
2023/04/28 03:10:44;;;;;;;5.80;4.30;;;15.00;90.10;;;;;;5000055;28;20462;-75
2023/04/28 03:13:17;;;;;;;5.47;4.90;;;15.00;90.20;;;;;;4998706;28;20617;-74
2023/04/28 03:15:45;;;;;;;7.00;4.60;;;15.00;90.20;;;;;;5020013;28;20509;-75
2023/04/28 03:18:17;;;;;;;7.87;5.53;;;15.00;90.30;;;;;;5026605;28;20446;-74
2023/04/28 03:20:44;;;;;;;7.43;5.00;;;15.00;90.30;;;;;;4991205;28;20505;-74
2023/04/28 03:23:12;;;;;;;6.07;4.70;;;15.00;90.40;;;;;;4998580;28;20801;-75
2023/04/28 03:25:38;;;;;;;5.30;4.80;;;15.00;90.40;;;;;;5015860;28;20433;-75
2023/04/28 03:28:07;;;;;;;6.43;4.73;;;15.00;90.50;;;;;;4983598;28;20470;-75
2023/04/28 03:30:35;;;;;;;4.80;4.40;;;15.00;90.50;;;;;;4990366;28;20451;-75
2023/04/28 03:33:06;;;;;;;5.67;5.17;;;15.00;90.60;;;;;;4992391;28;20527;-74
2023/04/28 03:35:35;;;;;;;7.23;5.07;;;15.00;90.60;;;;;;4986848;28;20480;-74
2023/04/28 03:38:04;;;;;;;4.97;4.50;;;15.00;90.60;;;;;;4990747;28;20439;-75
2023/04/28 03:40:30;;;;;;;7.73;5.37;;;15.00;90.70;;;;;;4995422;28;20433;-74
2023/04/28 03:43:11;;;;;;;7.10;5.20;;;14.90;90.70;;;;;;5012342;28;20462;-74
2023/04/28 03:46:02;;;;;;;7.27;5.23;;;15.00;90.80;;;;;;4964403;28;20421;-75
2023/04/28 03:48:28;;;;;;;6.97;5.73;;;15.00;90.90;;;;;;4988908;28;20434;-75
2023/04/28 03:50:55;;;;;;;6.37;4.70;;;14.90;90.90;;;;;;4990838;28;20555;-75
2023/04/28 03:53:21;;;;;;;5.07;4.57;;;14.90;91.00;;;;;;4990342;28;20793;-74
2023/04/28 03:55:54;;;;;;;5.33;4.77;;;14.90;91.00;;;;;;5011825;28;20437;-75
2023/04/28 03:58:22;;;;;;;5.03;4.53;;;14.90;91.00;;;;;;4992758;28;20451;-75
2023/04/28 04:00:51;;;;;;;5.30;4.70;;;14.90;91.10;;;;;;4990628;28;21047;-75
2023/04/28 04:03:20;;;;;;;6.00;5.30;;;14.90;91.10;;;;;;4981079;28;20448;-74
2023/04/28 04:05:46;;;;;;;5.23;4.73;;;14.90;91.10;;;;;;4994112;28;20458;-75
2023/04/28 04:08:12;;;;;;;5.30;4.80;;;14.90;91.30;;;;;;4999247;28;20487;-74
2023/04/28 04:10:38;;;;;;;6.60;5.20;;;14.90;91.30;;;;;;4994792;28;20887;-74
2023/04/28 04:13:05;;;;;;;6.07;5.47;;;14.90;91.30;;;;;;5011668;28;20485;-74
2023/04/28 04:15:33;;;;;;;6.50;5.33;;;14.90;91.40;;;;;;4978691;28;20443;-75
2023/04/28 04:18:06;;;;;;;7.87;5.63;;;14.90;91.50;;;;;;5011636;28;20431;-75
2023/04/28 04:20:54;;;;;;;7.70;5.57;;;14.90;91.60;;;;;;5012378;28;20541;-74
2023/04/28 04:23:21;;;;;;;7.40;6.00;;;14.90;91.60;;;;;;5000986;28;21007;-74
2023/04/28 04:25:52;;;;;;;7.43;5.07;;;14.90;91.70;;;;;;4992328;28;22069;-74
2023/04/28 04:28:21;;;;;;;7.47;5.37;;;14.80;91.60;;;;;;5002738;28;20548;-74
2023/04/28 04:30:47;;;;;;;6.00;5.37;;;14.80;91.70;;;;;;5013543;28;20507;-74
2023/04/28 04:33:16;;;;;;;6.70;5.07;;;14.90;91.70;;;;;;4997473;28;20454;-74
2023/04/28 04:35:42;;;;;;;6.10;5.40;;;14.80;91.90;;;;;;5014951;28;20476;-75
2023/04/28 04:38:09;;;;;;;6.23;5.60;;;14.80;91.80;;;;;;5006957;28;20962;-74
2023/04/28 04:40:37;;;;;;;5.57;5.07;;;14.90;91.90;;;;;;4998685;28;20930;-74
2023/04/28 04:43:03;;;;;;;7.00;5.47;;;14.80;91.90;;;;;;5013094;28;20496;-74
2023/04/28 04:45:39;;;;;;;5.90;5.30;;;14.80;91.90;;;;;;4995494;28;20528;-74
2023/04/28 04:48:05;;;;;;;5.37;4.90;;;14.80;92.00;;;;;;5013135;28;20449;-74
2023/04/28 04:50:32;;;;;;;7.43;5.07;;;14.80;92.00;;;;;;4982095;28;20471;-74
2023/04/28 04:52:58;;;;;;;5.60;5.10;;;14.80;92.00;;;;;;5012734;28;20448;-74
2023/04/28 04:55:31;;;;;;;5.43;4.90;;;14.80;92.10;;;;;;4981557;28;20489;-74
2023/04/28 04:57:58;;;;;;;5.20;4.60;;;14.80;92.10;;;;;;4995264;28;20486;-74
2023/04/28 05:00:44;;;;;;;6.60;5.10;;;14.80;92.10;;;;;;5016318;28;20426;-74
2023/04/28 05:03:15;;;;;;;6.83;5.30;;;14.80;92.10;;;;;;5011988;28;20462;-74
2023/04/28 05:05:44;;;;;;;6.90;5.57;;;14.80;92.20;;;;;;4997174;28;20475;-73
2023/04/28 05:08:15;;;;;;;7.10;5.17;;;14.80;92.20;;;;;;5015041;28;20957;-74
2023/04/28 05:10:41;;;;;;;7.17;5.33;;;14.80;92.30;;;;;;5017976;28;20457;-73
2023/04/28 05:13:08;;;;;;;6.43;5.83;;;14.80;92.30;;;;;;4998525;28;20555;-72
2023/04/28 05:15:34;;;;;;;6.90;5.30;;;14.80;92.30;;;;;;4997825;28;20414;-73
2023/04/28 05:18:27;;;;;;;7.53;4.83;;;14.80;92.40;;;;;;4994633;28;20944;-73
2023/04/28 05:20:57;;;;;;;5.63;5.03;;;14.80;92.40;;;;;;4997525;28;20515;-76
2023/04/28 05:23:23;;;;;;;5.43;4.93;;;14.80;92.50;;;;;;5028475;28;20427;-74
2023/04/28 05:25:50;;;;;;;5.70;4.70;;;14.80;92.50;;;;;;5014035;28;20442;-76
2023/04/28 05:28:19;;;;;;;6.23;5.30;;;14.80;92.50;;;;;;5011662;28;20453;-74
2023/04/28 05:30:48;;;;;;;5.53;4.80;;;14.70;92.50;;;;;;4982583;28;20459;-74
2023/04/28 05:33:17;;;;;;;6.10;5.60;;;14.80;92.60;;;;;;5010511;28;20973;-76
2023/04/28 05:35:43;;;;;;;5.17;4.73;;;14.80;92.60;;;;;;4990947;28;20456;-75
2023/04/28 05:38:10;;;;;;;5.67;5.17;;;14.80;92.60;;;;;;4978496;28;20494;-75
2023/04/28 05:40:41;;;;;;;5.17;4.77;;;14.80;92.60;;;;;;5001886;28;20448;-77
2023/04/28 05:43:07;;;;;;;5.70;5.10;;;14.70;92.60;;;;;;5009459;28;20481;-77
2023/04/28 05:45:33;;;;;;;5.90;4.67;;;14.70;92.60;;;;;;5013699;28;20431;-78
2023/04/28 05:48:00;;;;;;;6.10;4.73;;;14.70;92.70;;;;;;4977207;28;20813;-75
2023/04/28 05:50:26;;;;;;;6.33;5.30;;;14.70;92.80;;;;;;5003409;28;20522;-77
2023/04/28 05:52:52;;;;;;;8.13;5.57;;;14.70;92.80;;;;;;4993928;28;20443;-79
2023/04/28 05:55:21;;;;;;;7.93;5.23;;;14.70;92.80;;;;;;4979901;28;20417;-78
2023/04/28 05:57:50;;;;;;;6.80;4.40;;;14.70;92.80;;;;;;4994107;28;20835;-77
2023/04/28 06:00:19;;;;;;;6.80;5.13;;;14.70;92.90;;;;;;4995093;28;20965;-77
2023/04/28 06:02:45;;;;;;;5.27;4.87;;;14.70;92.90;;;;;;4981756;28;20457;-77
2023/04/28 06:05:15;;;;;;;5.70;5.10;;;14.70;92.90;;;;;;4998535;28;20481;-77
2023/04/28 06:07:44;;;;;;;5.30;4.77;;;14.70;92.90;;;;;;4979002;28;20799;-77
2023/04/28 06:10:16;;;;;;;5.90;5.20;;;14.70;92.90;;;;;;4982231;28;20461;-77
2023/04/28 06:12:42;;;;;;;5.07;4.57;;;14.70;92.90;;;;;;4989934;28;20820;-77
2023/04/28 06:15:08;;;;;;;5.23;4.67;;;14.70;92.80;;;;;;4997445;28;20411;-75
2023/04/28 06:17:34;;;;;;;5.37;4.63;;;14.70;92.90;;;;;;4994772;28;20526;-76
2023/04/28 06:20:03;;;;;;;5.37;4.90;;;14.70;92.90;;;;;;5013371;28;20419;-76
2023/04/28 06:22:30;;;;;;;5.50;5.00;;;14.70;92.90;;;;;;4996226;28;20477;-77
2023/04/28 06:24:56;;;;;;;5.23;4.70;;;14.70;93.00;;;;;;5012883;28;20896;-75
2023/04/28 06:27:31;;;;;;;5.10;4.60;;;14.70;93.00;;;;;;4976341;28;20444;-76
2023/04/28 06:29:58;;;;;;;5.50;5.00;;;14.70;93.10;;;;;;4974514;28;20434;-76
2023/04/28 06:32:24;;;;;;;6.33;5.10;;;14.70;93.10;;;;;;5010291;28;20450;-76
2023/04/28 06:34:51;;;;;;;5.97;5.33;;;14.70;93.20;;;;;;4995583;28;22369;-76
2023/04/28 06:37:17;;;;;;;5.90;5.37;;;14.70;93.20;;;;;;4994848;28;20459;-76
2023/04/28 06:39:43;;;;;;;6.07;5.47;;;14.70;93.20;;;;;;4973982;28;20868;-77
2023/04/28 06:42:12;;;;;;;6.00;5.37;;;14.70;93.20;;;;;;4995280;28;20491;-76
2023/04/28 06:44:46;;;;;;;6.27;5.33;;;14.70;93.30;;;;;;5009166;28;20433;-75
2023/04/28 06:47:14;;;;;;;7.10;5.43;;;14.70;93.60;;;;;;4991777;28;20535;-76
2023/04/28 06:49:42;;;;;;;6.00;5.40;;;14.70;93.70;;;;;;5011347;28;20470;-76
2023/04/28 06:52:13;;;;;;;7.10;5.47;;;14.70;93.80;;;;;;4996942;28;20460;-77
2023/04/28 06:54:39;;;;;;;5.77;5.27;;;14.70;93.90;;;;;;5011629;28;20543;-80
2023/04/28 06:57:10;;;;;;;6.30;5.70;;;14.70;94.00;;;;;;4989209;28;20460;-81
2023/04/28 06:59:38;;;;;;;5.97;5.37;;;14.70;93.90;;;;;;5034149;28;20420;-77
2023/04/28 07:02:05;;;;;;;7.97;6.53;;;14.70;94.00;;;;;;5013034;28;20542;-77
2023/04/28 07:04:31;;;;;;;5.70;5.20;;;14.70;94.20;;;;;;5010113;28;20460;-76
2023/04/28 07:06:57;;;;;;;6.40;5.37;;;14.70;94.30;;;;;;5006370;28;20464;-78
2023/04/28 07:09:24;;;;;;;7.73;6.20;;;14.70;94.50;;;;;;4997035;28;20428;-77
2023/04/28 07:11:50;;;;;;;5.90;5.40;;;14.70;94.60;;;;;;5007055;28;20473;-77
2023/04/28 07:14:16;;;;;;;6.43;5.63;;;14.70;94.70;;;;;;5000202;28;20457;-77
2023/04/28 07:16:46;;;;;;;6.50;5.77;;;14.70;94.80;;;;;;5031758;28;20178;-76
2023/04/28 07:19:12;;;;;;;5.80;5.30;;;14.70;94.80;;;;;;4980325;28;20463;-77
2023/04/28 07:21:38;;;;;;;8.97;6.10;;;14.70;94.80;;;;;;4997315;28;20444;-76
2023/04/28 07:24:04;;;;;;;6.70;5.37;;;14.70;94.90;;;;;;5000578;28;20432;-76
2023/04/28 07:26:32;;;;;;;7.50;5.90;;;14.80;95.10;;;;;;5002607;28;20185;-75
2023/04/28 07:29:00;;;;;;;6.00;5.43;;;14.80;95.20;;;;;;5030266;28;20424;-76
2023/04/28 07:31:29;;;;;;;7.00;6.30;;;14.80;95.30;;;;;;5005544;28;20479;-76
2023/04/28 07:33:58;;;;;;;5.80;5.20;;;14.80;95.30;;;;;;5007858;28;20442;-75
2023/04/28 07:36:24;;;;;;;6.00;5.40;;;14.80;95.30;;;;;;5000957;28;20427;-77
2023/04/28 07:38:55;;;;;;;6.77;6.20;;;14.80;95.30;;;;;;5024923;28;20451;-76
2023/04/28 07:41:26;;;;;;;5.37;4.87;;;14.80;95.50;;;;;;5015430;28;20832;-76
2023/04/28 07:43:57;;;;;;;5.83;5.33;;;14.80;95.60;;;;;;5026410;28;20497;-79
2023/04/28 07:46:23;;;;;;;7.63;6.10;;;14.80;95.60;;;;;;4999404;28;20503;-77
2023/04/28 07:48:49;;;;;;;7.77;5.57;;;14.80;95.60;;;;;;4998223;28;20500;-77
2023/04/28 07:51:17;;;;;;;5.63;5.13;;;14.80;95.80;;;;;;5030073;28;20470;-78
2023/04/28 07:53:43;;;;;;;6.23;5.73;;;14.80;95.90;;;;;;5013521;28;20482;-76
2023/04/28 07:56:12;;;;;;;6.67;5.30;;;14.80;96.00;;;;;;5012742;28;20525;-77
2023/04/28 07:58:42;;;;;;;5.63;5.13;;;14.80;96.00;;;;;;5031479;28;20712;-76
2023/04/28 08:01:09;;;;;;;6.50;6.00;;;14.80;96.00;;;;;;5028716;28;20529;-77
2023/04/28 08:03:37;;;;;;;6.50;5.90;;;14.80;96.00;;;;;;5014284;28;20746;-77
2023/04/28 08:06:05;;;;;;;5.60;5.10;;;14.80;95.90;;;;;;4998785;28;20467;-77
2023/04/28 08:08:31;;;;;;;6.17;5.57;;;14.80;95.80;;;;;;5014565;28;21001;-75
2023/04/28 08:10:58;;;;;;;8.83;5.50;;;14.80;95.80;;;;;;5032199;28;20563;-77
2023/04/28 08:13:25;;;;;;;6.10;5.50;;;14.80;95.80;;;;;;4997987;28;20440;-77
2023/04/28 08:15:59;;;;;;;6.40;5.80;;;14.80;95.80;;;;;;5015267;28;20430;-77
2023/04/28 08:18:30;;;;;;;8.13;5.90;;;14.90;95.90;;;;;;5013659;28;20585;-77
2023/04/28 08:20:58;;;;;;;6.70;5.67;;;14.80;95.80;;;;;;5030965;28;21002;-76
2023/04/28 08:23:29;;;;;;;8.57;6.00;;;14.80;95.90;;;;;;5015954;28;20442;-78
2023/04/28 08:25:55;;;;;;;6.67;5.90;;;14.80;95.90;;;;;;4996332;28;20437;-75
2023/04/28 08:28:24;;;;;;;7.23;6.53;;;14.80;95.90;;;;;;4994821;28;20965;-76
2023/04/28 08:30:51;;;;;;;8.70;6.37;;;14.80;96.00;;;;;;5000435;28;20548;-76
2023/04/28 08:33:19;;;;;;;7.10;5.30;;;14.90;96.10;;;;;;4996284;28;20907;-76
2023/04/28 08:35:47;;;;;;;6.73;6.03;;;14.80;96.20;;;;;;5011466;28;20418;-76
2023/04/28 08:38:16;;;;;;;6.80;5.80;;;14.90;96.20;;;;;;4995849;28;20485;-77
2023/04/28 08:40:45;;;;;;;6.40;5.77;;;14.80;96.20;;;;;;5010694;28;20466;-76
2023/04/28 08:43:12;;;;;;;6.93;5.50;;;14.80;96.20;;;;;;4996813;28;20455;-77
2023/04/28 08:45:44;;;;;;;6.90;5.93;;;14.90;96.30;;;;;;4996581;28;20496;-77
2023/04/28 08:48:19;;;;;;;6.83;6.13;;;14.90;96.30;;;;;;4997749;28;20466;-76
2023/04/28 08:50:55;;;;;;;6.63;5.73;;;14.90;96.40;;;;;;5011732;28;20500;-77
2023/04/28 08:53:25;;;;;;;7.60;6.30;;;14.90;96.50;;;;;;5006111;28;20418;-76
2023/04/28 08:55:55;;;;;;;8.97;6.50;;;14.90;96.50;;;;;;4995596;28;20472;-78
2023/04/28 08:58:25;;;;;;;5.60;5.10;;;14.90;96.50;;;;;;4981476;28;20420;-78
2023/04/28 09:00:52;;;;;;;6.70;5.90;;;14.90;96.50;;;;;;4970162;28;20417;-77
2023/04/28 09:03:23;;;;;;;7.03;6.33;;;14.90;96.50;;;;;;5016268;28;20482;-77
2023/04/28 09:05:49;;;;;;;6.40;5.80;;;15.00;96.60;;;;;;5013338;28;20423;-76
2023/04/28 09:08:16;;;;;;;6.10;5.57;;;15.00;96.50;;;;;;4981073;28;20543;-76
2023/04/28 09:11:08;;;;;;;6.73;6.13;;;15.00;96.50;;;;;;4964695;28;20465;-77
2023/04/28 09:13:40;;;;;;;5.90;5.30;;;15.00;96.50;;;;;;5002532;28;21059;-77
2023/04/28 09:16:06;;;;;;;5.80;5.20;;;15.00;96.40;;;;;;4985077;28;20513;-77
2023/04/28 09:18:37;;;;;;;8.17;5.50;;;15.00;96.40;;;;;;5011155;28;20786;-77
2023/04/28 09:21:07;;;;;;;9.70;6.00;;;15.00;96.50;;;;;;5044767;23;20451;-74
2023/04/28 09:23:54;;;;;;;6.10;5.50;;;15.00;96.60;;;;;;5068384;28;20826;-76
2023/04/28 09:26:20;;;;;;;6.97;5.83;;;15.00;96.70;;;;;;5056147;28;20911;-75
2023/04/28 09:28:46;;;;;;;5.80;5.17;;;15.00;96.70;;;;;;5073066;28;20532;-75
2023/04/28 09:31:27;;;;;;;7.97;5.83;;;15.00;96.70;;;;;;5072547;28;20484;-73
2023/04/28 09:33:59;;;;;;;6.00;5.40;;;15.00;96.80;;;;;;5055368;28;20508;-73
2023/04/28 09:36:31;;;;;;;6.33;5.73;;;15.00;96.80;;;;;;5055265;28;20410;-73
2023/04/28 09:39:02;;;;;;;6.23;5.53;;;15.00;96.70;;;;;;5038569;28;20923;-73
2023/04/28 09:41:44;;;;;;;6.07;5.47;;;15.00;96.70;;;;;;5054304;28;20438;-73
2023/04/28 09:44:20;;;;;;;6.93;5.70;;;15.10;96.80;;;;;;5031357;28;20456;-73
2023/04/28 09:46:47;;;;;;;6.07;5.57;;;15.10;96.80;;;;;;5006723;28;20430;-75
2023/04/28 09:49:15;;;;;;;7.23;6.27;;;15.10;97.00;;;;;;5037572;28;20410;-72
2023/04/28 09:51:43;;;;;;;7.60;6.40;;;15.10;97.10;;;;;;5071315;28;20469;-74
2023/04/28 09:54:11;;;;;;;9.47;5.40;;;15.10;97.20;;;;;;5054522;28;20417;-75
2023/04/28 09:56:41;;;;;;;7.10;6.40;;;15.10;97.20;;;;;;5037876;28;20438;-75
2023/04/28 09:59:07;;;;;;;7.67;5.93;;;15.10;97.20;;;;;;5071647;28;20438;-75
2023/04/28 10:01:39;;;;;;;7.33;6.53;;;15.10;97.20;;;;;;5038354;28;20470;-75
2023/04/28 10:04:08;;;;;;;11.70;6.87;;;15.10;97.10;;;;;;5072824;28;20474;-75
2023/04/28 10:06:38;;;;;;;21.27;7.67;;;15.20;98.00;;;;;;5088433;28;20424;-76
2023/04/28 10:09:04;;;;;;;18.53;9.13;;;15.20;99.10;;;;;;5054904;28;20398;-75
2023/04/28 10:11:33;;;;;;;13.33;8.67;;;15.20;99.70;;;;;;5053669;28;21050;-71
2023/04/28 10:14:02;;;;;;;17.73;7.90;;;15.20;99.90;;;;;;5034826;28;20455;-71
2023/04/28 10:16:30;;;;;;;17.77;7.73;;;15.30;99.90;;;;;;5051853;28;20446;-71
2023/04/28 10:18:59;;;;;;;16.13;7.37;;;15.30;99.90;;;;;;5052481;28;20404;-72
2023/04/28 10:21:27;;;;;;;19.23;8.03;;;15.30;99.90;;;;;;5057824;28;20626;-73
2023/04/28 10:24:21;;;;;;;13.07;7.50;;;15.30;99.90;;;;;;5063894;28;20431;-74
2023/04/28 10:27:08;;;;;;;10.43;6.77;;;15.30;99.80;;;;;;5032537;28;20431;-73
2023/04/28 10:29:36;;;;;;;12.70;7.03;;;15.30;99.70;;;;;;5037718;28;20460;-73
2023/04/28 10:32:32;;;;;;;9.53;7.20;;;15.30;99.70;;;;;;5074501;28;20835;-73
2023/04/28 10:35:19;;;;;;;12.40;6.80;;;15.30;99.70;;;;;;5054074;28;20429;-73
2023/04/28 10:38:07;;;;;;;11.67;6.83;;;15.20;99.60;;;;;;5056533;28;20586;-73
2023/04/28 10:40:44;;;;;;;10.87;6.57;;;15.30;99.50;;;;;;5073375;28;20794;-73
2023/04/28 10:43:12;;;;;;;9.43;6.90;;;15.20;99.30;;;;;;5072461;28;20743;-73
2023/04/28 10:45:55;;;;;;;9.50;6.60;;;15.30;99.20;;;;;;5024701;28;20434;-73
2023/04/28 10:48:25;;;;;;;7.50;6.20;;;15.20;99.10;;;;;;5073584;28;20787;-76
2023/04/28 10:51:17;;;;;;;7.97;6.50;;;15.20;99.00;;;;;;5071946;28;20513;-75
2023/04/28 10:53:45;;;;;;;9.60;7.53;;;15.20;98.90;;;;;;5063878;28;20432;-73
2023/04/28 10:56:17;;;;;;;7.07;6.37;;;15.20;98.90;;;;;;5024023;28;20557;-73
2023/04/28 10:58:50;;;;;;;9.93;7.47;;;15.20;99.00;;;;;;5072235;28;20421;-73
2023/04/28 11:01:30;;;;;;;8.50;6.70;;;15.20;99.10;;;;;;5038857;28;20456;-75
2023/04/28 11:04:02;;;;;;;8.70;6.00;;;15.20;99.10;;;;;;5072174;28;20698;-74
2023/04/28 11:06:33;;;;;;;7.70;6.43;;;15.20;99.00;;;;;;5032549;28;20439;-77
2023/04/28 11:09:16;;;;;;;6.77;6.03;;;15.30;99.00;;;;;;5072115;28;20497;-74
2023/04/28 11:12:00;;;;;;;6.13;5.53;;;15.30;99.00;;;;;;5073012;28;20477;-74
2023/04/28 11:14:30;;;;;;;7.60;5.10;;;15.20;98.90;;;;;;5071730;28;20437;-70
2023/04/28 11:17:04;;;;;;;8.20;5.87;;;15.30;98.80;;;;;;5088310;28;20418;-70
2023/04/28 11:19:44;;;;;;;9.37;7.07;;;15.20;98.70;;;;;;5054363;28;20533;-71
2023/04/28 11:22:15;;;;;;;7.73;6.07;;;15.30;98.80;;;;;;5055001;28;20440;-71
2023/04/28 11:24:54;;;;;;;11.57;6.60;;;15.30;98.80;;;;;;5054842;28;20421;-70
2023/04/28 11:27:24;;;;;;;7.63;6.17;;;15.30;98.80;;;;;;5054214;28;20459;-72
2023/04/28 11:29:52;;;;;;;5.70;5.20;;;15.30;98.70;;;;;;5054748;28;20436;-74
2023/04/28 11:32:35;;;;;;;6.73;6.00;;;15.30;98.80;;;;;;5054640;28;20482;-74
2023/04/28 11:35:03;;;;;;;8.10;6.10;;;15.30;98.90;;;;;;5072440;28;20417;-74
2023/04/28 11:37:31;;;;;;;11.80;6.00;;;15.30;98.90;;;;;;5050423;28;20480;-72
2023/04/28 11:40:08;;;;;;;8.17;6.47;;;15.30;98.90;;;;;;5052838;28;20886;-72
2023/04/28 11:42:48;;;;;;;7.90;5.70;;;15.30;98.90;;;;;;5053358;28;20780;-71
2023/04/28 11:45:14;;;;;;;7.13;6.30;;;15.30;98.90;;;;;;5002166;28;20452;-71
2023/04/28 11:47:42;;;;;;;8.60;6.20;;;15.30;99.00;;;;;;5034728;28;20470;-71
2023/04/28 11:50:08;;;;;;;8.63;5.80;;;15.30;99.10;;;;;;5053712;28;20480;-74
2023/04/28 11:52:50;;;;;;;6.10;5.50;;;15.30;99.00;;;;;;5053122;28;21001;-70
2023/04/28 11:55:20;;;;;;;8.47;5.03;;;15.30;99.00;;;;;;5087616;28;20447;-71
2023/04/28 11:57:46;;;;;;;6.90;5.60;;;15.30;99.00;;;;;;5053621;28;20429;-70
2023/04/28 12:00:20;;;;;;;6.97;6.33;;;15.30;98.90;;;;;;5052984;28;20557;-70
2023/04/28 12:02:51;;;;;;;7.33;6.23;;;15.30;99.10;;;;;;5033891;28;20480;-70
2023/04/28 12:05:20;;;;;;;6.37;5.77;;;15.30;99.20;;;;;;5051284;28;20419;-71
2023/04/28 12:07:49;;;;;;;5.90;5.27;;;15.30;99.40;;;;;;5053498;28;20428;-71
2023/04/28 12:10:20;;;;;;;6.40;5.80;;;15.30;99.50;;;;;;5053730;28;20499;-70
2023/04/28 12:12:51;;;;;;;6.57;5.97;;;15.30;99.60;;;;;;5049746;28;20456;-71
2023/04/28 12:15:23;;;;;;;7.10;6.40;;;15.30;99.80;;;;;;5050511;28;20412;-70
2023/04/28 12:17:49;;;;;;;6.60;6.00;;;15.30;99.90;;;;;;5033963;28;20419;-71
2023/04/28 12:20:38;;;;;;;6.17;5.67;;;15.30;99.90;;;;;;5069397;28;20452;-71
2023/04/28 12:23:04;;;;;;;6.53;5.80;;;15.40;99.90;;;;;;5053439;28;20459;-71
2023/04/28 12:25:42;;;;;;;6.83;5.63;;;15.40;99.90;;;;;;5070632;28;20418;-70
2023/04/28 12:28:15;;;;;;;5.77;5.27;;;15.40;99.90;;;;;;5069364;28;20460;-71
2023/04/28 12:30:44;;;;;;;5.10;4.70;;;15.40;99.90;;;;;;5053604;28;20472;-71
2023/04/28 12:33:28;;;;;;;6.70;5.63;;;15.40;99.90;;;;;;5070688;28;20438;-71
2023/04/28 12:36:06;;;;;;;5.03;4.53;;;15.40;99.90;;;;;;5049884;28;20808;-71
2023/04/28 12:38:46;;;;;;;6.67;6.07;;;15.40;99.90;;;;;;5053642;28;20413;-70
2023/04/28 12:41:14;;;;;;;7.07;6.27;;;15.50;99.90;;;;;;5052830;28;20446;-71
2023/04/28 12:43:44;;;;;;;6.43;5.20;;;15.40;99.90;;;;;;5052866;28;20513;-71
2023/04/28 12:46:13;;;;;;;6.43;5.83;;;15.50;99.90;;;;;;5070847;28;20407;-71
2023/04/28 12:48:46;;;;;;;6.83;5.37;;;15.50;99.90;;;;;;5070509;28;20489;-70
2023/04/28 12:51:12;;;;;;;7.00;6.30;;;15.50;99.90;;;;;;5053043;28;20448;-71
2023/04/28 12:53:41;;;;;;;6.50;5.90;;;15.60;99.90;;;;;;5035396;28;20774;-71
2023/04/28 12:56:11;;;;;;;5.90;5.40;;;15.50;99.90;;;;;;5069870;28;20298;-71
2023/04/28 12:58:39;;;;;;;8.40;5.07;;;15.50;99.90;;;;;;5034613;28;20447;-70
2023/04/28 13:01:08;;;;;;;5.50;5.00;;;15.60;99.90;;;;;;5052362;28;20449;-71
2023/04/28 13:03:36;;;;;;;5.67;5.00;;;15.60;99.90;;;;;;5019619;28;20515;-71